sensor_id;sensor_type;location;lat;lon;timestamp;P1;durP1;ratioP1;P2;durP2;ratioP2
45322;SDS011;31382;50.200;8.674;2022-10-17T00:02:54;11.30;;;5.05;;
45322;SDS011;31382;50.200;8.674;2022-10-17T00:07:56;7.85;;;4.00;;
45322;SDS011;31382;50.200;8.674;2022-10-17T00:12:57;9.15;;;4.57;;
45322;SDS011;31382;50.200;8.674;2022-10-17T00:18:00;6.57;;;3.78;;
45322;SDS011;31382;50.200;8.674;2022-10-17T00:23:01;10.38;;;4.10;;
45322;SDS011;31382;50.200;8.674;2022-10-17T00:28:09;5.82;;;3.45;;
45322;SDS011;31382;50.200;8.674;2022-10-17T00:33:14;6.47;;;3.58;;
45322;SDS011;31382;50.200;8.674;2022-10-17T00:38:16;7.07;;;3.55;;
45322;SDS011;31382;50.200;8.674;2022-10-17T00:43:17;7.93;;;3.92;;
45322;SDS011;31382;50.200;8.674;2022-10-17T00:48:18;6.85;;;4.10;;
45322;SDS011;31382;50.200;8.674;2022-10-17T00:53:23;10.15;;;4.03;;
45322;SDS011;31382;50.200;8.674;2022-10-17T00:58:24;8.85;;;4.00;;
45322;SDS011;31382;50.200;8.674;2022-10-17T01:03:26;7.50;;;4.10;;
45322;SDS011;31382;50.200;8.674;2022-10-17T01:08:27;8.45;;;3.72;;
45322;SDS011;31382;50.200;8.674;2022-10-17T01:13:32;8.77;;;3.40;;
45322;SDS011;31382;50.200;8.674;2022-10-17T01:18:45;8.27;;;3.70;;
45322;SDS011;31382;50.200;8.674;2022-10-17T01:34:54;8.13;;;3.63;;
45322;SDS011;31382;50.200;8.674;2022-10-17T01:40:06;8.50;;;5.05;;
45322;SDS011;31382;50.200;8.674;2022-10-17T01:50:38;11.20;;;4.05;;
45322;SDS011;31382;50.200;8.674;2022-10-17T01:55:43;9.18;;;4.10;;
45322;SDS011;31382;50.200;8.674;2022-10-17T02:00:48;8.00;;;4.05;;
45322;SDS011;31382;50.200;8.674;2022-10-17T02:05:50;16.42;;;4.85;;
45322;SDS011;31382;50.200;8.674;2022-10-17T02:10:59;11.23;;;3.80;;
45322;SDS011;31382;50.200;8.674;2022-10-17T02:32:10;12.52;;;4.45;;
45322;SDS011;31382;50.200;8.674;2022-10-17T02:37:14;10.75;;;3.67;;
45322;SDS011;31382;50.200;8.674;2022-10-17T02:42:21;6.72;;;3.88;;
45322;SDS011;31382;50.200;8.674;2022-10-17T02:47:26;8.73;;;5.00;;
45322;SDS011;31382;50.200;8.674;2022-10-17T02:52:34;7.00;;;3.65;;
45322;SDS011;31382;50.200;8.674;2022-10-17T03:02:48;7.28;;;3.78;;
45322;SDS011;31382;50.200;8.674;2022-10-17T03:07:51;12.00;;;4.30;;
45322;SDS011;31382;50.200;8.674;2022-10-17T03:12:54;10.00;;;5.10;;
45322;SDS011;31382;50.200;8.674;2022-10-17T03:17:56;5.95;;;4.80;;
45322;SDS011;31382;50.200;8.674;2022-10-17T03:22:58;7.28;;;4.78;;
45322;SDS011;31382;50.200;8.674;2022-10-17T03:27:59;5.25;;;4.70;;
45322;SDS011;31382;50.200;8.674;2022-10-17T03:33:01;8.18;;;4.57;;
45322;SDS011;31382;50.200;8.674;2022-10-17T03:38:03;9.82;;;4.68;;
45322;SDS011;31382;50.200;8.674;2022-10-17T03:43:04;8.60;;;4.05;;
45322;SDS011;31382;50.200;8.674;2022-10-17T03:48:06;10.40;;;3.97;;
45322;SDS011;31382;50.200;8.674;2022-10-17T03:53:07;6.95;;;4.18;;
45322;SDS011;31382;50.200;8.674;2022-10-17T03:58:08;8.35;;;4.78;;
45322;SDS011;31382;50.200;8.674;2022-10-17T04:03:10;5.55;;;4.18;;
45322;SDS011;31382;50.200;8.674;2022-10-17T04:13:18;7.07;;;3.75;;
45322;SDS011;31382;50.200;8.674;2022-10-17T04:18:20;8.98;;;4.15;;
45322;SDS011;31382;50.200;8.674;2022-10-17T04:23:21;3.88;;;3.45;;
45322;SDS011;31382;50.200;8.674;2022-10-17T04:28:23;3.70;;;3.17;;
45322;SDS011;31382;50.200;8.674;2022-10-17T04:33:26;4.45;;;3.60;;
45322;SDS011;31382;50.200;8.674;2022-10-17T04:38:28;4.13;;;3.25;;
45322;SDS011;31382;50.200;8.674;2022-10-17T04:43:31;4.40;;;3.38;;
45322;SDS011;31382;50.200;8.674;2022-10-17T04:48:34;9.85;;;4.05;;
45322;SDS011;31382;50.200;8.674;2022-10-17T04:53:37;5.55;;;3.70;;
45322;SDS011;31382;50.200;8.674;2022-10-17T04:58:39;5.63;;;3.80;;
45322;SDS011;31382;50.200;8.674;2022-10-17T05:03:42;3.90;;;3.28;;
45322;SDS011;31382;50.200;8.674;2022-10-17T05:08:44;9.32;;;3.25;;
45322;SDS011;31382;50.200;8.674;2022-10-17T05:13:48;13.23;;;3.90;;
45322;SDS011;31382;50.200;8.674;2022-10-17T05:18:52;6.32;;;3.15;;
45322;SDS011;31382;50.200;8.674;2022-10-17T05:23:55;3.88;;;3.25;;
45322;SDS011;31382;50.200;8.674;2022-10-17T05:28:58;6.00;;;3.70;;
45322;SDS011;31382;50.200;8.674;2022-10-17T05:34:01;5.95;;;3.25;;
45322;SDS011;31382;50.200;8.674;2022-10-17T05:39:03;5.70;;;3.28;;
45322;SDS011;31382;50.200;8.674;2022-10-17T05:44:04;7.45;;;5.18;;
45322;SDS011;31382;50.200;8.674;2022-10-17T05:49:08;6.13;;;4.15;;
45322;SDS011;31382;50.200;8.674;2022-10-17T05:54:19;8.88;;;4.63;;
45322;SDS011;31382;50.200;8.674;2022-10-17T05:59:20;10.02;;;4.82;;
45322;SDS011;31382;50.200;8.674;2022-10-17T06:04:22;10.52;;;5.05;;
45322;SDS011;31382;50.200;8.674;2022-10-17T06:09:23;13.32;;;4.53;;
45322;SDS011;31382;50.200;8.674;2022-10-17T06:14:25;11.30;;;4.82;;
45322;SDS011;31382;50.200;8.674;2022-10-17T06:19:26;10.68;;;5.03;;
45322;SDS011;31382;50.200;8.674;2022-10-17T06:24:28;11.55;;;6.13;;
45322;SDS011;31382;50.200;8.674;2022-10-17T06:29:29;10.20;;;5.60;;
45322;SDS011;31382;50.200;8.674;2022-10-17T06:34:30;10.52;;;5.40;;
45322;SDS011;31382;50.200;8.674;2022-10-17T06:39:33;4.88;;;3.92;;
45322;SDS011;31382;50.200;8.674;2022-10-17T06:44:35;5.78;;;4.63;;
45322;SDS011;31382;50.200;8.674;2022-10-17T06:49:36;6.70;;;4.55;;
45322;SDS011;31382;50.200;8.674;2022-10-17T06:54:38;9.38;;;4.55;;
45322;SDS011;31382;50.200;8.674;2022-10-17T06:59:39;5.63;;;4.70;;
45322;SDS011;31382;50.200;8.674;2022-10-17T07:04:41;6.63;;;4.20;;
45322;SDS011;31382;50.200;8.674;2022-10-17T07:09:42;6.80;;;5.22;;
45322;SDS011;31382;50.200;8.674;2022-10-17T07:14:44;10.52;;;4.80;;
45322;SDS011;31382;50.200;8.674;2022-10-17T07:19:47;8.68;;;5.57;;
45322;SDS011;31382;50.200;8.674;2022-10-17T07:24:48;10.13;;;6.00;;
45322;SDS011;31382;50.200;8.674;2022-10-17T07:29:50;14.55;;;6.43;;
45322;SDS011;31382;50.200;8.674;2022-10-17T07:34:51;11.05;;;6.03;;
45322;SDS011;31382;50.200;8.674;2022-10-17T07:39:53;17.45;;;7.22;;
45322;SDS011;31382;50.200;8.674;2022-10-17T07:44:54;7.82;;;5.85;;
45322;SDS011;31382;50.200;8.674;2022-10-17T07:49:56;5.68;;;5.13;;
45322;SDS011;31382;50.200;8.674;2022-10-17T07:54:57;11.35;;;5.15;;
45322;SDS011;31382;50.200;8.674;2022-10-17T07:59:59;9.98;;;4.47;;
45322;SDS011;31382;50.200;8.674;2022-10-17T08:05:01;7.20;;;4.57;;
45322;SDS011;31382;50.200;8.674;2022-10-17T08:10:03;4.80;;;4.28;;
45322;SDS011;31382;50.200;8.674;2022-10-17T08:15:05;7.43;;;5.03;;
45322;SDS011;31382;50.200;8.674;2022-10-17T08:20:08;7.95;;;4.70;;
45322;SDS011;31382;50.200;8.674;2022-10-17T08:25:10;10.13;;;4.30;;
45322;SDS011;31382;50.200;8.674;2022-10-17T08:30:12;11.02;;;5.40;;
45322;SDS011;31382;50.200;8.674;2022-10-17T08:35:13;10.25;;;5.50;;
45322;SDS011;31382;50.200;8.674;2022-10-17T08:40:19;6.43;;;5.10;;
45322;SDS011;31382;50.200;8.674;2022-10-17T08:45:29;8.82;;;5.40;;
45322;SDS011;31382;50.200;8.674;2022-10-17T08:50:37;9.60;;;4.88;;
45322;SDS011;31382;50.200;8.674;2022-10-17T08:55:45;9.63;;;4.40;;
45322;SDS011;31382;50.200;8.674;2022-10-17T09:00:54;5.97;;;4.00;;
45322;SDS011;31382;50.200;8.674;2022-10-17T09:06:08;10.02;;;4.65;;
45322;SDS011;31382;50.200;8.674;2022-10-17T09:11:27;6.57;;;3.40;;
45322;SDS011;31382;50.200;8.674;2022-10-17T09:17:05;5.68;;;3.45;;
45322;SDS011;31382;50.200;8.674;2022-10-17T09:22:13;7.97;;;3.70;;
45322;SDS011;31382;50.200;8.674;2022-10-17T09:27:23;8.77;;;3.60;;
45322;SDS011;31382;50.200;8.674;2022-10-17T09:32:28;12.00;;;3.50;;
45322;SDS011;31382;50.200;8.674;2022-10-17T09:37:30;11.18;;;3.63;;
45322;SDS011;31382;50.200;8.674;2022-10-17T09:42:32;5.30;;;3.28;;
45322;SDS011;31382;50.200;8.674;2022-10-17T09:53:12;8.60;;;2.70;;
45322;SDS011;31382;50.200;8.674;2022-10-17T10:04:15;5.63;;;2.38;;
45322;SDS011;31382;50.200;8.674;2022-10-17T10:09:20;3.70;;;2.10;;
45322;SDS011;31382;50.200;8.674;2022-10-17T10:14:33;7.70;;;2.65;;
45322;SDS011;31382;50.200;8.674;2022-10-17T10:19:37;8.98;;;2.30;;
45322;SDS011;31382;50.200;8.674;2022-10-17T10:24:39;4.35;;;1.80;;
45322;SDS011;31382;50.200;8.674;2022-10-17T10:29:50;8.10;;;1.67;;
45322;SDS011;31382;50.200;8.674;2022-10-17T10:34:57;5.80;;;2.38;;
45322;SDS011;31382;50.200;8.674;2022-10-17T10:40:22;6.72;;;3.05;;
45322;SDS011;31382;50.200;8.674;2022-10-17T10:45:28;7.40;;;1.83;;
45322;SDS011;31382;50.200;8.674;2022-10-17T10:56:06;5.28;;;1.90;;
45322;SDS011;31382;50.200;8.674;2022-10-17T11:01:34;6.75;;;1.58;;
45322;SDS011;31382;50.200;8.674;2022-10-17T11:07:01;5.85;;;1.55;;
45322;SDS011;31382;50.200;8.674;2022-10-17T11:12:12;7.80;;;1.77;;
45322;SDS011;31382;50.200;8.674;2022-10-17T11:17:22;4.13;;;1.48;;
45322;SDS011;31382;50.200;8.674;2022-10-17T11:22:36;3.60;;;1.30;;
45322;SDS011;31382;50.200;8.674;2022-10-17T11:27:42;5.05;;;1.30;;
45322;SDS011;31382;50.200;8.674;2022-10-17T11:32:51;7.93;;;1.58;;
45322;SDS011;31382;50.200;8.674;2022-10-17T11:38:09;10.85;;;2.00;;
45322;SDS011;31382;50.200;8.674;2022-10-17T11:54:23;6.00;;;1.40;;
45322;SDS011;31382;50.200;8.674;2022-10-17T12:04:51;6.68;;;1.60;;
45322;SDS011;31382;50.200;8.674;2022-10-17T12:10:23;3.75;;;1.10;;
45322;SDS011;31382;50.200;8.674;2022-10-17T12:15:37;5.03;;;1.73;;
45322;SDS011;31382;50.200;8.674;2022-10-17T12:20:38;7.65;;;1.88;;
45322;SDS011;31382;50.200;8.674;2022-10-17T12:25:47;4.75;;;1.70;;
45322;SDS011;31382;50.200;8.674;2022-10-17T12:31:01;5.13;;;1.85;;
45322;SDS011;31382;50.200;8.674;2022-10-17T12:46:54;4.80;;;1.25;;
45322;SDS011;31382;50.200;8.674;2022-10-17T12:57:43;5.90;;;1.25;;
45322;SDS011;31382;50.200;8.674;2022-10-17T13:02:52;4.45;;;1.00;;
45322;SDS011;31382;50.200;8.674;2022-10-17T13:07:55;4.97;;;1.15;;
45322;SDS011;31382;50.200;8.674;2022-10-17T13:18:45;3.47;;;1.50;;
45322;SDS011;31382;50.200;8.674;2022-10-17T13:23:53;6.28;;;1.30;;
45322;SDS011;31382;50.200;8.674;2022-10-17T13:29:05;3.92;;;1.10;;
45322;SDS011;31382;50.200;8.674;2022-10-17T13:34:15;2.90;;;1.20;;
45322;SDS011;31382;50.200;8.674;2022-10-17T13:39:28;5.45;;;1.17;;
45322;SDS011;31382;50.200;8.674;2022-10-17T13:44:54;3.33;;;1.08;;
45322;SDS011;31382;50.200;8.674;2022-10-17T13:49:56;4.55;;;1.02;;
45322;SDS011;31382;50.200;8.674;2022-10-17T13:55:11;5.22;;;0.85;;
45322;SDS011;31382;50.200;8.674;2022-10-17T14:00:18;4.13;;;1.75;;
45322;SDS011;31382;50.200;8.674;2022-10-17T14:05:21;3.13;;;0.90;;
45322;SDS011;31382;50.200;8.674;2022-10-17T14:10:24;3.72;;;1.00;;
45322;SDS011;31382;50.200;8.674;2022-10-17T14:15:31;8.60;;;1.10;;
45322;SDS011;31382;50.200;8.674;2022-10-17T14:20:35;3.83;;;1.50;;
45322;SDS011;31382;50.200;8.674;2022-10-17T14:26:04;4.80;;;1.17;;
45322;SDS011;31382;50.200;8.674;2022-10-17T14:31:22;5.93;;;1.10;;
45322;SDS011;31382;50.200;8.674;2022-10-17T14:36:38;4.88;;;1.10;;
45322;SDS011;31382;50.200;8.674;2022-10-17T14:41:44;4.38;;;0.70;;
45322;SDS011;31382;50.200;8.674;2022-10-17T14:46:49;3.28;;;0.70;;
45322;SDS011;31382;50.200;8.674;2022-10-17T14:57:22;3.97;;;1.00;;
45322;SDS011;31382;50.200;8.674;2022-10-17T15:02:27;1.45;;;0.63;;
45322;SDS011;31382;50.200;8.674;2022-10-17T15:07:30;7.53;;;0.88;;
45322;SDS011;31382;50.200;8.674;2022-10-17T15:12:32;3.33;;;1.70;;
45322;SDS011;31382;50.200;8.674;2022-10-17T15:17:33;2.00;;;0.90;;
45322;SDS011;31382;50.200;8.674;2022-10-17T15:22:34;3.30;;;0.88;;
45322;SDS011;31382;50.200;8.674;2022-10-17T15:27:36;6.07;;;1.23;;
45322;SDS011;31382;50.200;8.674;2022-10-17T15:32:38;4.10;;;1.15;;
45322;SDS011;31382;50.200;8.674;2022-10-17T15:37:39;3.60;;;1.25;;
45322;SDS011;31382;50.200;8.674;2022-10-17T15:42:43;4.20;;;1.13;;
45322;SDS011;31382;50.200;8.674;2022-10-17T15:47:48;2.50;;;1.20;;
45322;SDS011;31382;50.200;8.674;2022-10-17T15:52:52;4.55;;;1.30;;
45322;SDS011;31382;50.200;8.674;2022-10-17T15:57:54;3.05;;;1.13;;
45322;SDS011;31382;50.200;8.674;2022-10-17T16:02:55;5.20;;;1.85;;
45322;SDS011;31382;50.200;8.674;2022-10-17T16:07:59;8.38;;;1.88;;
45322;SDS011;31382;50.200;8.674;2022-10-17T16:13:00;6.15;;;2.22;;
45322;SDS011;31382;50.200;8.674;2022-10-17T16:18:02;12.52;;;5.72;;
45322;SDS011;31382;50.200;8.674;2022-10-17T16:23:09;5.60;;;4.30;;
45322;SDS011;31382;50.200;8.674;2022-10-17T16:28:12;8.27;;;3.17;;
45322;SDS011;31382;50.200;8.674;2022-10-17T16:33:14;9.38;;;2.88;;
45322;SDS011;31382;50.200;8.674;2022-10-17T16:38:15;6.43;;;2.50;;
45322;SDS011;31382;50.200;8.674;2022-10-17T16:43:16;6.50;;;2.28;;
45322;SDS011;31382;50.200;8.674;2022-10-17T16:48:18;5.90;;;2.88;;
45322;SDS011;31382;50.200;8.674;2022-10-17T16:53:19;11.43;;;5.05;;
45322;SDS011;31382;50.200;8.674;2022-10-17T16:58:21;7.40;;;4.40;;
45322;SDS011;31382;50.200;8.674;2022-10-17T17:03:24;10.77;;;4.13;;
45322;SDS011;31382;50.200;8.674;2022-10-17T17:08:26;13.50;;;4.93;;
45322;SDS011;31382;50.200;8.674;2022-10-17T17:13:27;12.60;;;5.38;;
45322;SDS011;31382;50.200;8.674;2022-10-17T17:18:29;15.18;;;5.72;;
45322;SDS011;31382;50.200;8.674;2022-10-17T17:23:32;12.15;;;6.10;;
45322;SDS011;31382;50.200;8.674;2022-10-17T17:28:35;14.27;;;5.75;;
45322;SDS011;31382;50.200;8.674;2022-10-17T17:33:37;9.50;;;5.28;;
45322;SDS011;31382;50.200;8.674;2022-10-17T17:38:39;10.27;;;5.35;;
45322;SDS011;31382;50.200;8.674;2022-10-17T17:43:41;13.80;;;7.07;;
45322;SDS011;31382;50.200;8.674;2022-10-17T17:48:44;18.08;;;8.90;;
45322;SDS011;31382;50.200;8.674;2022-10-17T17:53:47;14.80;;;6.35;;
45322;SDS011;31382;50.200;8.674;2022-10-17T17:58:52;9.25;;;5.68;;
45322;SDS011;31382;50.200;8.674;2022-10-17T18:04:01;13.10;;;5.95;;
45322;SDS011;31382;50.200;8.674;2022-10-17T18:09:05;9.65;;;6.45;;
45322;SDS011;31382;50.200;8.674;2022-10-17T18:14:09;8.48;;;5.18;;
45322;SDS011;31382;50.200;8.674;2022-10-17T18:19:11;7.47;;;4.22;;
45322;SDS011;31382;50.200;8.674;2022-10-17T18:24:13;13.73;;;4.43;;
45322;SDS011;31382;50.200;8.674;2022-10-17T18:29:14;11.32;;;5.60;;
45322;SDS011;31382;50.200;8.674;2022-10-17T18:34:16;10.77;;;4.40;;
45322;SDS011;31382;50.200;8.674;2022-10-17T18:39:17;10.82;;;4.35;;
45322;SDS011;31382;50.200;8.674;2022-10-17T18:44:18;10.65;;;4.22;;
45322;SDS011;31382;50.200;8.674;2022-10-17T18:49:20;7.82;;;4.10;;
45322;SDS011;31382;50.200;8.674;2022-10-17T18:54:25;7.72;;;3.75;;
45322;SDS011;31382;50.200;8.674;2022-10-17T18:59:26;8.52;;;4.35;;
45322;SDS011;31382;50.200;8.674;2022-10-17T19:04:28;6.30;;;3.45;;
45322;SDS011;31382;50.200;8.674;2022-10-17T19:09:29;11.77;;;4.40;;
45322;SDS011;31382;50.200;8.674;2022-10-17T19:14:31;12.82;;;5.75;;
45322;SDS011;31382;50.200;8.674;2022-10-17T19:19:32;11.85;;;5.32;;
45322;SDS011;31382;50.200;8.674;2022-10-17T19:24:34;6.80;;;4.78;;
45322;SDS011;31382;50.200;8.674;2022-10-17T19:29:35;11.60;;;4.97;;
45322;SDS011;31382;50.200;8.674;2022-10-17T19:34:36;8.88;;;5.40;;
45322;SDS011;31382;50.200;8.674;2022-10-17T19:39:38;14.85;;;5.53;;
45322;SDS011;31382;50.200;8.674;2022-10-17T19:44:39;9.25;;;4.95;;
45322;SDS011;31382;50.200;8.674;2022-10-17T19:49:41;9.80;;;4.68;;
45322;SDS011;31382;50.200;8.674;2022-10-17T19:54:47;10.80;;;5.43;;
45322;SDS011;31382;50.200;8.674;2022-10-17T19:59:49;9.55;;;5.72;;
45322;SDS011;31382;50.200;8.674;2022-10-17T20:04:55;8.37;;;4.93;;
45322;SDS011;31382;50.200;8.674;2022-10-17T20:10:16;9.90;;;5.20;;
45322;SDS011;31382;50.200;8.674;2022-10-17T20:15:18;10.10;;;5.00;;
45322;SDS011;31382;50.200;8.674;2022-10-17T20:20:20;13.50;;;4.75;;
45322;SDS011;31382;50.200;8.674;2022-10-17T20:25:21;7.97;;;5.22;;
45322;SDS011;31382;50.200;8.674;2022-10-17T20:30:23;20.10;;;9.80;;
45322;SDS011;31382;50.200;8.674;2022-10-17T20:35:24;21.20;;;9.23;;
45322;SDS011;31382;50.200;8.674;2022-10-17T20:40:26;11.63;;;6.53;;
45322;SDS011;31382;50.200;8.674;2022-10-17T20:45:36;10.23;;;4.93;;
45322;SDS011;31382;50.200;8.674;2022-10-17T20:50:52;6.97;;;4.87;;
45322;SDS011;31382;50.200;8.674;2022-10-17T20:56:00;10.38;;;5.38;;
45322;SDS011;31382;50.200;8.674;2022-10-17T21:01:07;13.43;;;4.75;;
45322;SDS011;31382;50.200;8.674;2022-10-17T21:06:10;9.68;;;5.32;;
45322;SDS011;31382;50.200;8.674;2022-10-17T21:11:18;8.98;;;5.20;;
45322;SDS011;31382;50.200;8.674;2022-10-17T21:16:21;11.20;;;4.80;;
45322;SDS011;31382;50.200;8.674;2022-10-17T21:21:24;16.10;;;6.05;;
45322;SDS011;31382;50.200;8.674;2022-10-17T21:26:28;11.50;;;4.28;;
45322;SDS011;31382;50.200;8.674;2022-10-17T21:31:33;7.50;;;4.40;;
45322;SDS011;31382;50.200;8.674;2022-10-17T21:41:40;10.45;;;5.20;;
45322;SDS011;31382;50.200;8.674;2022-10-17T21:46:43;10.43;;;5.40;;
45322;SDS011;31382;50.200;8.674;2022-10-17T21:51:45;14.13;;;5.07;;
45322;SDS011;31382;50.200;8.674;2022-10-17T21:56:48;12.30;;;5.88;;
45322;SDS011;31382;50.200;8.674;2022-10-17T22:01:50;17.77;;;5.25;;
45322;SDS011;31382;50.200;8.674;2022-10-17T22:06:51;11.38;;;4.63;;
45322;SDS011;31382;50.200;8.674;2022-10-17T22:11:54;9.68;;;4.85;;
45322;SDS011;31382;50.200;8.674;2022-10-17T22:16:56;7.28;;;4.45;;
45322;SDS011;31382;50.200;8.674;2022-10-17T22:21:58;14.82;;;5.20;;
45322;SDS011;31382;50.200;8.674;2022-10-17T22:26:59;14.00;;;5.93;;
45322;SDS011;31382;50.200;8.674;2022-10-17T22:32:00;10.77;;;3.95;;
45322;SDS011;31382;50.200;8.674;2022-10-17T22:37:02;8.93;;;4.13;;
45322;SDS011;31382;50.200;8.674;2022-10-17T22:42:03;8.88;;;4.13;;
45322;SDS011;31382;50.200;8.674;2022-10-17T22:47:05;23.58;;;5.60;;
45322;SDS011;31382;50.200;8.674;2022-10-17T22:52:06;11.02;;;3.67;;
45322;SDS011;31382;50.200;8.674;2022-10-17T22:57:07;15.27;;;4.13;;
45322;SDS011;31382;50.200;8.674;2022-10-17T23:02:09;14.70;;;3.88;;
45322;SDS011;31382;50.200;8.674;2022-10-17T23:07:10;8.63;;;3.92;;
45322;SDS011;31382;50.200;8.674;2022-10-17T23:12:14;13.15;;;3.83;;
45322;SDS011;31382;50.200;8.674;2022-10-17T23:17:15;20.90;;;4.72;;
45322;SDS011;31382;50.200;8.674;2022-10-17T23:22:17;9.50;;;4.18;;
45322;SDS011;31382;50.200;8.674;2022-10-17T23:27:18;11.13;;;4.32;;
45322;SDS011;31382;50.200;8.674;2022-10-17T23:32:20;9.52;;;4.93;;
45322;SDS011;31382;50.200;8.674;2022-10-17T23:37:21;14.68;;;5.25;;
45322;SDS011;31382;50.200;8.674;2022-10-17T23:42:22;11.45;;;5.72;;
45322;SDS011;31382;50.200;8.674;2022-10-17T23:47:24;8.20;;;5.15;;
45322;SDS011;31382;50.200;8.674;2022-10-17T23:52:25;20.08;;;7.15;;
45322;SDS011;31382;50.200;8.674;2022-10-17T23:57:27;8.80;;;4.57;;
